CMB502 OKKK-ETAR
Flight info
| Callsign | CMB502 |
|---|---|
| Flight time | N/A |
| Altitude | 40000 |
| Route | KFR L550 BOSID DCT DATOK L550 GENIV L324 LAKTO DCT AKINA UN133 ATFIR N133 LOMOS DCT SODGO DCT DEGET DCT PATAK DCT LALES DCT BNO DCT ELMEK DCT RAPET DCT KODUK DCT XIDOD |
| Aircraft | B77L/H-SDE1E2E3FGHIJ2J3J4J5M1RWXY/LB1D1 |
Departure
| Time | N/A |
|---|---|
| Airport | Kuwait International Airport (OKKK) |
Arrival
| Time | 2026-04-27 23:57 |
|---|---|
| Airport | Ramstein Air Base (ETAR) |
| Time | Latitude | Longitude | Altitude | Speed | Heading |
|---|---|---|---|---|---|
| 2026-04-27 20:34 | 35.28759 | 28.64016 | 39999 ft | 451 kts | 310° |
| 2026-04-27 20:35 | 35.36902 | 28.52891 | 39999 ft | 450 kts | 310° |
| 2026-04-27 20:35 | 35.41078 | 28.47172 | 40003 ft | 451 kts | 310° |
| 2026-04-27 20:36 | 35.45263 | 28.41430 | 40004 ft | 451 kts | 310° |
| 2026-04-27 20:36 | 35.49440 | 28.35690 | 40004 ft | 451 kts | 310° |
| 2026-04-27 20:37 | 35.53619 | 28.29938 | 40004 ft | 452 kts | 310° |
| 2026-04-27 20:37 | 35.57797 | 28.24177 | 40004 ft | 452 kts | 310° |
| 2026-04-27 20:38 | 35.61975 | 28.18407 | 40004 ft | 452 kts | 310° |
| 2026-04-27 20:38 | 35.66153 | 28.12627 | 40004 ft | 452 kts | 310° |
| 2026-04-27 20:39 | 35.70328 | 28.06840 | 40006 ft | 452 kts | 309° |
| 2026-04-27 20:39 | 35.74500 | 28.01049 | 40009 ft | 452 kts | 309° |
| 2026-04-27 20:40 | 35.78669 | 27.95251 | 40008 ft | 452 kts | 309° |
| 2026-04-27 20:40 | 35.82841 | 27.89439 | 40008 ft | 453 kts | 309° |
| 2026-04-27 20:41 | 35.87008 | 27.83624 | 40008 ft | 453 kts | 309° |
| 2026-04-27 20:41 | 35.91174 | 27.77801 | 40007 ft | 453 kts | 309° |
| 2026-04-27 20:42 | 35.95332 | 27.71979 | 40007 ft | 452 kts | 309° |
| 2026-04-27 20:42 | 35.99482 | 27.66157 | 40008 ft | 452 kts | 309° |
| 2026-04-27 20:43 | 36.03633 | 27.60325 | 40008 ft | 452 kts | 309° |
| 2026-04-27 20:43 | 36.07785 | 27.54481 | 40008 ft | 452 kts | 309° |
| 2026-04-27 20:44 | 36.11927 | 27.48640 | 40009 ft | 451 kts | 309° |
| 2026-04-27 20:44 | 36.16060 | 27.42802 | 40010 ft | 451 kts | 309° |
| 2026-04-27 20:45 | 36.20197 | 27.36948 | 40011 ft | 451 kts | 309° |
| 2026-04-27 20:45 | 36.24325 | 27.31098 | 40012 ft | 451 kts | 309° |
| 2026-04-27 20:46 | 36.28449 | 27.25243 | 40013 ft | 451 kts | 309° |
| 2026-04-27 20:46 | 36.32567 | 27.19384 | 40016 ft | 450 kts | 309° |
| 2026-04-27 20:47 | 36.36683 | 27.13520 | 40019 ft | 450 kts | 309° |
| 2026-04-27 20:47 | 36.40792 | 27.07655 | 40021 ft | 450 kts | 309° |
| 2026-04-27 20:48 | 36.44900 | 27.01781 | 40027 ft | 450 kts | 309° |
| 2026-04-27 20:48 | 36.49001 | 26.95907 | 40027 ft | 450 kts | 309° |
| 2026-04-27 20:49 | 36.53103 | 26.90021 | 40028 ft | 450 kts | 309° |
| 2026-04-27 20:49 | 36.57197 | 26.84135 | 40028 ft | 450 kts | 309° |
| 2026-04-27 20:50 | 36.61284 | 26.78250 | 40028 ft | 449 kts | 309° |
| 2026-04-27 20:50 | 36.65364 | 26.72364 | 40030 ft | 449 kts | 309° |
| 2026-04-27 20:51 | 36.69443 | 26.66469 | 40031 ft | 449 kts | 309° |
| 2026-04-27 20:51 | 36.73518 | 26.60570 | 40032 ft | 449 kts | 309° |
| 2026-04-27 20:52 | 36.77590 | 26.54673 | 40035 ft | 449 kts | 309° |
| 2026-04-27 20:52 | 36.81676 | 26.48780 | 40036 ft | 449 kts | 308° |
| 2026-04-27 20:53 | 36.85738 | 26.42858 | 40038 ft | 449 kts | 308° |
| 2026-04-27 20:53 | 36.89762 | 26.36972 | 40040 ft | 449 kts | 308° |
| 2026-04-27 20:54 | 36.95841 | 26.28072 | 40047 ft | 448 kts | 309° |
| 2026-04-27 20:55 | 37.00562 | 26.22970 | 40051 ft | 452 kts | 326° |
| 2026-04-27 20:55 | 37.06234 | 26.19478 | 40052 ft | 457 kts | 333° |
| 2026-04-27 20:56 | 37.12057 | 26.16214 | 40053 ft | 459 kts | 332° |
| 2026-04-27 20:56 | 37.17814 | 26.12762 | 40055 ft | 458 kts | 330° |
| 2026-04-27 20:57 | 37.23536 | 26.09254 | 40056 ft | 457 kts | 330° |
| 2026-04-27 20:57 | 37.29254 | 26.05742 | 40059 ft | 458 kts | 330° |
| 2026-04-27 20:58 | 37.34989 | 26.02262 | 40061 ft | 458 kts | 330° |
| 2026-04-27 20:58 | 37.40707 | 25.98744 | 40074 ft | 458 kts | 330° |
| 2026-04-27 20:59 | 37.46423 | 25.95210 | 40078 ft | 457 kts | 330° |
| 2026-04-27 20:59 | 37.52137 | 25.91672 | 40079 ft | 458 kts | 330° |
| 2026-04-27 21:00 | 37.57853 | 25.88131 | 40080 ft | 458 kts | 330° |
| 2026-04-27 21:00 | 37.63570 | 25.84580 | 40081 ft | 458 kts | 330° |
| 2026-04-27 21:01 | 37.69281 | 25.81025 | 40082 ft | 458 kts | 330° |
| 2026-04-27 21:01 | 37.74998 | 25.77456 | 40078 ft | 458 kts | 330° |
| 2026-04-27 21:02 | 37.80747 | 25.73859 | 40078 ft | 458 kts | 330° |
| 2026-04-27 21:02 | 37.86464 | 25.70276 | 40078 ft | 458 kts | 330° |
| 2026-04-27 21:03 | 37.92188 | 25.66700 | 40079 ft | 459 kts | 330° |
| 2026-04-27 21:03 | 37.97873 | 25.63158 | 40079 ft | 458 kts | 330° |
| 2026-04-27 21:04 | 38.03588 | 25.59577 | 40079 ft | 458 kts | 330° |
| 2026-04-27 21:04 | 38.09301 | 25.55985 | 40080 ft | 458 kts | 330° |
| 2026-04-27 21:05 | 38.15012 | 25.52387 | 40080 ft | 458 kts | 330° |
| 2026-04-27 21:05 | 38.20723 | 25.48781 | 40081 ft | 458 kts | 330° |
| 2026-04-27 21:06 | 38.26433 | 25.45169 | 40082 ft | 458 kts | 330° |
| 2026-04-27 21:06 | 38.32147 | 25.41549 | 40082 ft | 459 kts | 330° |
| 2026-04-27 21:07 | 38.37858 | 25.37924 | 40093 ft | 459 kts | 330° |
| 2026-04-27 21:07 | 38.43574 | 25.34289 | 40095 ft | 459 kts | 330° |
| 2026-04-27 21:08 | 38.49284 | 25.30652 | 40097 ft | 459 kts | 330° |
| 2026-04-27 21:08 | 38.54993 | 25.27009 | 40099 ft | 459 kts | 330° |
| 2026-04-27 21:09 | 38.60709 | 25.23354 | 40101 ft | 459 kts | 330° |
| 2026-04-27 21:09 | 38.66423 | 25.19695 | 40107 ft | 459 kts | 330° |
| 2026-04-27 21:10 | 38.72135 | 25.16030 | 40110 ft | 459 kts | 330° |
| 2026-04-27 21:10 | 38.77849 | 25.12357 | 40114 ft | 459 kts | 330° |
| 2026-04-27 21:11 | 38.83563 | 25.08693 | 40118 ft | 459 kts | 330° |
| 2026-04-27 21:11 | 38.89274 | 25.05019 | 40128 ft | 459 kts | 330° |
| 2026-04-27 21:12 | 38.94978 | 25.01324 | 40134 ft | 459 kts | 330° |
| 2026-04-27 21:12 | 39.00682 | 24.97623 | 40137 ft | 459 kts | 330° |
| 2026-04-27 21:13 | 39.06383 | 24.93918 | 40139 ft | 459 kts | 330° |
| 2026-04-27 21:13 | 39.12094 | 24.90221 | 40142 ft | 459 kts | 330° |
| 2026-04-27 21:14 | 39.17857 | 24.86676 | 40144 ft | 460 kts | 331° |
| 2026-04-27 21:14 | 39.23637 | 24.83127 | 40152 ft | 460 kts | 331° |
| 2026-04-27 21:15 | 39.29400 | 24.79560 | 40154 ft | 460 kts | 331° |
| 2026-04-27 21:15 | 39.35160 | 24.75967 | 40156 ft | 460 kts | 331° |
| 2026-04-27 21:16 | 39.40915 | 24.72367 | 40158 ft | 460 kts | 331° |
| 2026-04-27 21:16 | 39.46673 | 24.68763 | 40159 ft | 460 kts | 331° |
| 2026-04-27 21:17 | 39.52426 | 24.65157 | 40160 ft | 460 kts | 331° |
| 2026-04-27 21:17 | 39.57208 | 24.62156 | 40161 ft | 459 kts | 331° |
| 2026-04-27 21:18 | 39.62990 | 24.58516 | 40161 ft | 459 kts | 330° |
| 2026-04-27 21:18 | 39.68697 | 24.54915 | 40161 ft | 459 kts | 330° |
| 2026-04-27 21:19 | 39.74438 | 24.51285 | 40162 ft | 459 kts | 330° |
| 2026-04-27 21:19 | 39.80177 | 24.47650 | 40163 ft | 459 kts | 330° |
| 2026-04-27 21:20 | 39.88798 | 24.42227 | 40163 ft | 459 kts | 330° |
| 2026-04-27 21:20 | 39.94542 | 24.38590 | 40171 ft | 459 kts | 330° |
| 2026-04-27 21:21 | 40.00278 | 24.34945 | 40176 ft | 458 kts | 330° |
| 2026-04-27 21:21 | 40.06006 | 24.31298 | 40178 ft | 458 kts | 330° |
| 2026-04-27 21:22 | 40.11731 | 24.27644 | 40180 ft | 458 kts | 330° |
| 2026-04-27 21:22 | 40.17461 | 24.23981 | 40181 ft | 458 kts | 330° |
| 2026-04-27 21:23 | 40.23181 | 24.20317 | 40183 ft | 458 kts | 330° |
| 2026-04-27 21:23 | 40.28905 | 24.16643 | 40185 ft | 458 kts | 330° |
| 2026-04-27 21:24 | 40.34638 | 24.12979 | 40186 ft | 458 kts | 330° |
| 2026-04-27 21:24 | 40.40365 | 24.09291 | 40188 ft | 459 kts | 330° |
| 2026-04-27 21:25 | 40.46097 | 24.05583 | 40189 ft | 459 kts | 330° |
| 2026-04-27 21:25 | 40.51820 | 24.01872 | 40190 ft | 459 kts | 330° |
| 2026-04-27 21:26 | 40.57548 | 23.98176 | 40196 ft | 459 kts | 332° |
| 2026-04-27 21:26 | 40.63666 | 23.95701 | 40198 ft | 463 kts | 344° |
| 2026-04-27 21:27 | 40.70036 | 23.94199 | 40198 ft | 466 kts | 347° |
| 2026-04-27 21:27 | 40.76476 | 23.92751 | 40197 ft | 466 kts | 346° |
| 2026-04-27 21:28 | 40.82826 | 23.91255 | 40198 ft | 466 kts | 346° |
| 2026-04-27 21:28 | 40.89217 | 23.89730 | 40198 ft | 466 kts | 346° |
| 2026-04-27 21:29 | 40.95599 | 23.88207 | 40202 ft | 466 kts | 346° |
| 2026-04-27 21:29 | 41.01980 | 23.86694 | 40204 ft | 466 kts | 346° |
| 2026-04-27 21:30 | 41.08362 | 23.85160 | 40204 ft | 466 kts | 346° |
| 2026-04-27 21:30 | 41.14742 | 23.83620 | 40205 ft | 466 kts | 346° |
| 2026-04-27 21:31 | 41.21124 | 23.82077 | 40205 ft | 466 kts | 346° |
| 2026-04-27 21:31 | 41.27502 | 23.80534 | 40206 ft | 466 kts | 346° |
| 2026-04-27 21:32 | 41.33882 | 23.78994 | 40206 ft | 466 kts | 346° |
| 2026-04-27 21:32 | 41.40260 | 23.77452 | 40207 ft | 466 kts | 347° |
| 2026-04-27 21:33 | 41.46740 | 23.76324 | 40208 ft | 467 kts | 351° |
| 2026-04-27 21:33 | 41.53227 | 23.75537 | 40209 ft | 468 kts | 351° |
| 2026-04-27 21:34 | 41.59706 | 23.74674 | 40209 ft | 468 kts | 351° |
| 2026-04-27 21:34 | 41.66183 | 23.73765 | 40209 ft | 468 kts | 351° |
| 2026-04-27 21:35 | 41.72655 | 23.72842 | 40209 ft | 468 kts | 351° |
| 2026-04-27 21:35 | 41.79137 | 23.71922 | 40210 ft | 468 kts | 351° |
| 2026-04-27 21:36 | 41.85615 | 23.70997 | 40211 ft | 468 kts | 351° |
| 2026-04-27 21:36 | 41.92090 | 23.70068 | 40210 ft | 468 kts | 351° |
| 2026-04-27 21:37 | 41.98526 | 23.69143 | 40210 ft | 468 kts | 351° |
| 2026-04-27 21:37 | 42.05043 | 23.68208 | 40210 ft | 468 kts | 351° |
| 2026-04-27 21:38 | 42.11471 | 23.67278 | 40209 ft | 468 kts | 351° |
| 2026-04-27 21:38 | 42.17942 | 23.66338 | 40213 ft | 468 kts | 351° |
| 2026-04-27 21:39 | 42.24417 | 23.65397 | 40212 ft | 468 kts | 351° |
| 2026-04-27 21:39 | 42.30841 | 23.64375 | 40207 ft | 467 kts | 347° |
| 2026-04-27 21:40 | 42.37076 | 23.62500 | 40205 ft | 465 kts | 342° |
| 2026-04-27 21:40 | 42.43297 | 23.60163 | 40203 ft | 463 kts | 341° |
| 2026-04-27 21:41 | 42.49523 | 23.57902 | 40201 ft | 463 kts | 342° |
| 2026-04-27 21:41 | 42.55764 | 23.55706 | 40201 ft | 463 kts | 342° |
| 2026-04-27 21:42 | 42.62009 | 23.53523 | 40201 ft | 463 kts | 342° |
| 2026-04-27 21:42 | 42.68252 | 23.51361 | 40201 ft | 463 kts | 343° |
| 2026-04-27 21:43 | 42.74489 | 23.49192 | 40201 ft | 463 kts | 342° |
| 2026-04-27 21:43 | 42.80731 | 23.47010 | 40200 ft | 463 kts | 342° |
| 2026-04-27 21:44 | 42.86964 | 23.44826 | 40200 ft | 462 kts | 342° |
| 2026-04-27 21:44 | 42.93197 | 23.42648 | 40200 ft | 462 kts | 343° |
| 2026-04-27 21:45 | 42.99423 | 23.40461 | 40199 ft | 462 kts | 342° |
| 2026-04-27 21:45 | 43.05648 | 23.38261 | 40198 ft | 462 kts | 342° |
| 2026-04-27 21:46 | 43.11873 | 23.36055 | 40193 ft | 462 kts | 342° |
| 2026-04-27 21:46 | 43.18097 | 23.33846 | 40191 ft | 462 kts | 342° |
| 2026-04-27 21:47 | 43.24406 | 23.32170 | 40189 ft | 464 kts | 351° |
| 2026-04-27 21:47 | 43.30853 | 23.31520 | 40187 ft | 465 kts | 352° |
| 2026-04-27 21:48 | 43.37307 | 23.30724 | 40186 ft | 465 kts | 352° |
| 2026-04-27 21:48 | 43.43751 | 23.29918 | 40184 ft | 465 kts | 352° |
| 2026-04-27 21:49 | 43.50201 | 23.29111 | 40183 ft | 465 kts | 352° |
| 2026-04-27 21:49 | 43.56640 | 23.28316 | 40181 ft | 465 kts | 352° |
| 2026-04-27 21:50 | 43.63078 | 23.27522 | 40180 ft | 465 kts | 352° |
| 2026-04-27 21:50 | 43.69521 | 23.26721 | 40179 ft | 465 kts | 352° |
| 2026-04-27 21:51 | 43.75961 | 23.25919 | 40177 ft | 465 kts | 352° |
| 2026-04-27 21:51 | 43.82398 | 23.25093 | 40177 ft | 464 kts | 350° |
| 2026-04-27 21:52 | 43.88702 | 23.23301 | 40176 ft | 462 kts | 342° |
| 2026-04-27 21:52 | 43.94864 | 23.20792 | 40175 ft | 461 kts | 340° |
| 2026-04-27 21:53 | 44.01014 | 23.18270 | 40175 ft | 461 kts | 341° |
| 2026-04-27 21:53 | 44.07174 | 23.15846 | 40174 ft | 460 kts | 342° |
| 2026-04-27 21:54 | 44.13334 | 23.13450 | 40174 ft | 460 kts | 342° |
| 2026-04-27 21:54 | 44.19499 | 23.11071 | 40174 ft | 460 kts | 342° |
| 2026-04-27 21:55 | 44.25662 | 23.08696 | 40174 ft | 459 kts | 342° |
| 2026-04-27 21:55 | 44.31816 | 23.06309 | 40174 ft | 459 kts | 342° |
| 2026-04-27 21:56 | 44.41047 | 23.02716 | 40174 ft | 459 kts | 342° |
| 2026-04-27 21:57 | 44.46153 | 23.00722 | 40174 ft | 458 kts | 342° |
| 2026-04-27 21:57 | 44.52292 | 22.98320 | 40174 ft | 458 kts | 342° |
| 2026-04-27 21:58 | 44.58438 | 22.95923 | 40175 ft | 458 kts | 342° |
| 2026-04-27 21:58 | 44.64584 | 22.93514 | 40175 ft | 458 kts | 342° |
| 2026-04-27 21:59 | 44.70724 | 22.91090 | 40176 ft | 458 kts | 342° |
| 2026-04-27 21:59 | 44.76860 | 22.88661 | 40176 ft | 458 kts | 342° |
| 2026-04-27 22:00 | 44.83001 | 22.86227 | 40177 ft | 458 kts | 342° |
| 2026-04-27 22:00 | 44.88872 | 22.82876 | 40179 ft | 456 kts | 328° |
| 2026-04-27 22:01 | 44.94195 | 22.78050 | 40177 ft | 454 kts | 324° |
| 2026-04-27 22:01 | 44.99372 | 22.72964 | 40178 ft | 453 kts | 324° |
| 2026-04-27 22:02 | 45.04583 | 22.67939 | 40178 ft | 453 kts | 324° |
| 2026-04-27 22:02 | 45.09796 | 22.62957 | 40178 ft | 452 kts | 324° |
| 2026-04-27 22:03 | 45.15015 | 22.57976 | 40178 ft | 452 kts | 324° |
| 2026-04-27 22:03 | 45.20256 | 22.53041 | 40176 ft | 452 kts | 324° |
| 2026-04-27 22:04 | 45.25491 | 22.48083 | 40176 ft | 452 kts | 324° |
| 2026-04-27 22:04 | 45.30713 | 22.43108 | 40176 ft | 451 kts | 324° |
| 2026-04-27 22:05 | 45.35924 | 22.38127 | 40175 ft | 451 kts | 324° |
| 2026-04-27 22:05 | 45.41129 | 22.33138 | 40175 ft | 452 kts | 324° |
| 2026-04-27 22:06 | 45.46339 | 22.28132 | 40175 ft | 451 kts | 324° |
| 2026-04-27 22:06 | 45.51531 | 22.23131 | 40175 ft | 451 kts | 324° |
| 2026-04-27 22:07 | 45.56725 | 22.18117 | 40174 ft | 451 kts | 324° |
| 2026-04-27 22:07 | 45.61913 | 22.13098 | 40174 ft | 451 kts | 324° |
| 2026-04-27 22:08 | 45.67100 | 22.08067 | 40173 ft | 450 kts | 324° |
| 2026-04-27 22:08 | 45.72278 | 22.03035 | 40173 ft | 450 kts | 324° |
| 2026-04-27 22:09 | 45.77448 | 21.97998 | 40173 ft | 450 kts | 324° |
| 2026-04-27 22:09 | 45.82618 | 21.92951 | 40174 ft | 450 kts | 324° |
| 2026-04-27 22:10 | 45.87786 | 21.87893 | 40174 ft | 450 kts | 324° |
| 2026-04-27 22:10 | 45.92956 | 21.82822 | 40174 ft | 450 kts | 324° |
| 2026-04-27 22:11 | 45.98119 | 21.77746 | 40174 ft | 450 kts | 324° |
| 2026-04-27 22:11 | 46.03278 | 21.72662 | 40173 ft | 450 kts | 324° |
| 2026-04-27 22:12 | 46.08362 | 21.67641 | 40173 ft | 450 kts | 324° |
| 2026-04-27 22:12 | 46.13596 | 21.62459 | 40172 ft | 450 kts | 324° |
| 2026-04-27 22:13 | 46.18746 | 21.57349 | 40172 ft | 449 kts | 324° |
| 2026-04-27 22:13 | 46.23890 | 21.52246 | 40171 ft | 449 kts | 324° |
| 2026-04-27 22:14 | 46.29044 | 21.47146 | 40171 ft | 448 kts | 324° |
| 2026-04-27 22:14 | 46.34170 | 21.42013 | 40171 ft | 448 kts | 323° |
| 2026-04-27 22:15 | 46.39295 | 21.36862 | 40171 ft | 448 kts | 323° |
| 2026-04-27 22:15 | 46.44384 | 21.31739 | 40171 ft | 448 kts | 323° |
| 2026-04-27 22:16 | 46.49517 | 21.26527 | 40170 ft | 447 kts | 322° |
| 2026-04-27 22:16 | 46.54253 | 21.20781 | 40171 ft | 446 kts | 317° |
| 2026-04-27 22:17 | 46.58800 | 21.14639 | 40171 ft | 446 kts | 316° |
| 2026-04-27 22:17 | 46.63383 | 21.08472 | 40171 ft | 446 kts | 316° |
| 2026-04-27 22:18 | 46.67966 | 21.02383 | 40171 ft | 446 kts | 316° |
| 2026-04-27 22:18 | 46.72521 | 20.96349 | 40171 ft | 445 kts | 316° |
| 2026-04-27 22:19 | 46.77121 | 20.90303 | 40171 ft | 445 kts | 317° |
| 2026-04-27 22:19 | 46.81736 | 20.84278 | 40171 ft | 445 kts | 317° |
| 2026-04-27 22:20 | 46.86331 | 20.78225 | 40171 ft | 445 kts | 317° |
| 2026-04-27 22:20 | 46.90916 | 20.72157 | 40171 ft | 445 kts | 317° |
| 2026-04-27 22:21 | 46.95500 | 20.66067 | 40171 ft | 445 kts | 317° |
| 2026-04-27 22:21 | 47.00076 | 20.59973 | 40171 ft | 445 kts | 317° |
| 2026-04-27 22:22 | 47.04645 | 20.53871 | 40171 ft | 445 kts | 316° |
| 2026-04-27 22:22 | 47.09216 | 20.47753 | 40171 ft | 445 kts | 316° |
| 2026-04-27 22:23 | 47.13781 | 20.41627 | 40171 ft | 444 kts | 316° |
| 2026-04-27 22:23 | 47.18338 | 20.35497 | 40171 ft | 444 kts | 316° |
| 2026-04-27 22:24 | 47.22887 | 20.29362 | 40171 ft | 444 kts | 316° |
| 2026-04-27 22:24 | 47.27432 | 20.23218 | 40171 ft | 444 kts | 316° |
| 2026-04-27 22:25 | 47.32005 | 20.17021 | 40171 ft | 444 kts | 316° |
| 2026-04-27 22:25 | 47.36511 | 20.10901 | 40171 ft | 443 kts | 316° |
| 2026-04-27 22:26 | 47.41038 | 20.04736 | 40171 ft | 443 kts | 316° |
| 2026-04-27 22:26 | 47.45559 | 19.98565 | 40172 ft | 443 kts | 316° |
| 2026-04-27 22:27 | 47.50075 | 19.92385 | 40174 ft | 442 kts | 316° |
| 2026-04-27 22:27 | 47.54590 | 19.86192 | 40174 ft | 442 kts | 316° |
| 2026-04-27 22:28 | 47.59098 | 19.79991 | 40174 ft | 442 kts | 316° |
| 2026-04-27 22:28 | 47.63608 | 19.73775 | 40174 ft | 442 kts | 316° |
| 2026-04-27 22:29 | 47.68100 | 19.67567 | 40175 ft | 441 kts | 316° |
| 2026-04-27 22:29 | 47.72593 | 19.61341 | 40175 ft | 442 kts | 316° |
| 2026-04-27 22:30 | 47.77092 | 19.55093 | 40175 ft | 442 kts | 316° |
| 2026-04-27 22:30 | 47.81585 | 19.48838 | 40176 ft | 442 kts | 316° |
| 2026-04-27 22:31 | 47.86089 | 19.42599 | 40177 ft | 442 kts | 316° |
| 2026-04-27 22:31 | 47.90579 | 19.36342 | 40178 ft | 442 kts | 316° |
| 2026-04-27 22:32 | 47.95054 | 19.30043 | 40179 ft | 442 kts | 316° |
| 2026-04-27 22:32 | 47.99520 | 19.23737 | 40185 ft | 442 kts | 315° |
| 2026-04-27 22:33 | 48.03986 | 19.17421 | 40188 ft | 442 kts | 315° |
| 2026-04-27 22:33 | 48.08380 | 19.11086 | 40191 ft | 441 kts | 313° |
| 2026-04-27 22:34 | 48.12461 | 19.04138 | 40192 ft | 441 kts | 309° |
| 2026-04-27 22:34 | 48.16323 | 18.97091 | 40194 ft | 441 kts | 309° |
| 2026-04-27 22:35 | 48.20280 | 18.89984 | 40196 ft | 441 kts | 309° |
| 2026-04-27 22:35 | 48.24204 | 18.82998 | 40198 ft | 441 kts | 310° |
| 2026-04-27 22:36 | 48.28161 | 18.75963 | 40200 ft | 441 kts | 310° |
| 2026-04-27 22:36 | 48.32145 | 18.68963 | 40199 ft | 441 kts | 310° |
| 2026-04-27 22:37 | 48.36137 | 18.61957 | 40195 ft | 441 kts | 310° |
| 2026-04-27 22:37 | 48.40099 | 18.54933 | 40203 ft | 441 kts | 310° |
| 2026-04-27 22:38 | 48.44060 | 18.47877 | 40203 ft | 441 kts | 310° |
| 2026-04-27 22:38 | 48.48009 | 18.40816 | 40204 ft | 441 kts | 310° |
| 2026-04-27 22:39 | 48.51954 | 18.33743 | 40204 ft | 441 kts | 310° |
| 2026-04-27 22:39 | 48.55894 | 18.26661 | 40203 ft | 441 kts | 309° |
| 2026-04-27 22:40 | 48.59829 | 18.19568 | 40203 ft | 441 kts | 309° |
| 2026-04-27 22:40 | 48.63758 | 18.12466 | 40203 ft | 441 kts | 309° |
| 2026-04-27 22:41 | 48.67704 | 18.05371 | 40202 ft | 441 kts | 310° |
| 2026-04-27 22:41 | 48.70982 | 17.99461 | 40202 ft | 441 kts | 309° |
| 2026-04-27 22:42 | 48.74897 | 17.92308 | 40201 ft | 441 kts | 309° |
| 2026-04-27 22:42 | 48.78799 | 17.85146 | 40202 ft | 441 kts | 309° |
| 2026-04-27 22:43 | 48.82724 | 17.77931 | 40202 ft | 441 kts | 309° |
| 2026-04-27 22:43 | 48.86418 | 17.70594 | 40204 ft | 440 kts | 301° |
| 2026-04-27 22:44 | 48.89152 | 17.62199 | 40203 ft | 441 kts | 294° |
| 2026-04-27 22:44 | 48.91504 | 17.53596 | 40203 ft | 441 kts | 294° |
| 2026-04-27 22:45 | 48.93875 | 17.45009 | 40204 ft | 441 kts | 294° |
| 2026-04-27 22:45 | 48.96269 | 17.36431 | 40204 ft | 441 kts | 294° |
| 2026-04-27 22:46 | 48.98668 | 17.27846 | 40204 ft | 440 kts | 294° |
| 2026-04-27 22:46 | 49.01086 | 17.19281 | 40204 ft | 440 kts | 295° |
| 2026-04-27 22:47 | 49.03555 | 17.10739 | 40203 ft | 440 kts | 295° |
| 2026-04-27 22:47 | 49.05979 | 17.02161 | 40203 ft | 440 kts | 294° |
| 2026-04-27 22:48 | 49.08351 | 16.93552 | 40201 ft | 440 kts | 294° |
| 2026-04-27 22:48 | 49.10710 | 16.84953 | 40201 ft | 439 kts | 294° |
| 2026-04-27 22:49 | 49.13067 | 16.76345 | 40201 ft | 439 kts | 294° |
| 2026-04-27 22:49 | 49.15424 | 16.67740 | 40201 ft | 439 kts | 294° |
| 2026-04-27 22:50 | 49.17927 | 16.59229 | 40201 ft | 439 kts | 295° |
| 2026-04-27 22:50 | 49.20470 | 16.50736 | 40201 ft | 439 kts | 295° |
| 2026-04-27 22:51 | 49.22984 | 16.42222 | 40201 ft | 439 kts | 295° |
| 2026-04-27 22:51 | 49.25483 | 16.33692 | 40201 ft | 439 kts | 295° |
| 2026-04-27 22:52 | 49.27972 | 16.25153 | 40201 ft | 439 kts | 295° |
| 2026-04-27 22:52 | 49.30489 | 16.16632 | 40201 ft | 439 kts | 295° |
| 2026-04-27 22:53 | 49.33033 | 16.08112 | 40201 ft | 440 kts | 295° |
| 2026-04-27 22:53 | 49.35545 | 15.99556 | 40201 ft | 440 kts | 295° |
| 2026-04-27 22:54 | 49.38041 | 15.90982 | 40200 ft | 440 kts | 295° |
| 2026-04-27 22:54 | 49.40525 | 15.82399 | 40201 ft | 440 kts | 295° |
| 2026-04-27 22:55 | 49.43003 | 15.73799 | 40200 ft | 440 kts | 294° |
| 2026-04-27 22:55 | 49.45473 | 15.65195 | 40202 ft | 440 kts | 294° |
| 2026-04-27 22:56 | 49.47934 | 15.56590 | 40203 ft | 440 kts | 294° |
| 2026-04-27 22:56 | 49.50390 | 15.47970 | 40204 ft | 440 kts | 294° |
| 2026-04-27 22:57 | 49.52843 | 15.39332 | 40204 ft | 440 kts | 294° |
| 2026-04-27 22:57 | 49.55284 | 15.30703 | 40205 ft | 440 kts | 294° |
| 2026-04-27 22:58 | 49.57721 | 15.22056 | 40206 ft | 440 kts | 294° |
| 2026-04-27 22:58 | 49.60153 | 15.13398 | 40208 ft | 440 kts | 294° |
| 2026-04-27 22:59 | 49.62576 | 15.04737 | 40209 ft | 440 kts | 294° |
| 2026-04-27 22:59 | 49.64991 | 14.96076 | 40211 ft | 440 kts | 294° |
| 2026-04-27 23:00 | 49.68606 | 14.83049 | 40215 ft | 440 kts | 294° |
| 2026-04-27 23:00 | 49.71006 | 14.74363 | 40220 ft | 440 kts | 294° |
| 2026-04-27 23:01 | 49.73400 | 14.65665 | 40222 ft | 440 kts | 293° |
| 2026-04-27 23:01 | 49.75787 | 14.56958 | 40224 ft | 440 kts | 293° |
| 2026-04-27 23:02 | 49.78175 | 14.48239 | 40228 ft | 440 kts | 294° |
| 2026-04-27 23:02 | 49.80594 | 14.39542 | 40229 ft | 440 kts | 293° |
| 2026-04-27 23:03 | 49.82955 | 14.30802 | 40229 ft | 440 kts | 293° |
| 2026-04-27 23:03 | 49.85301 | 14.22043 | 40230 ft | 440 kts | 292° |
| 2026-04-27 23:04 | 49.87641 | 14.13284 | 40229 ft | 440 kts | 292° |
| 2026-04-27 23:04 | 49.89984 | 14.04514 | 40229 ft | 440 kts | 292° |
| 2026-04-27 23:05 | 49.91926 | 13.95516 | 40229 ft | 440 kts | 286° |
| 2026-04-27 23:05 | 49.93452 | 13.86304 | 40229 ft | 441 kts | 285° |
| 2026-04-27 23:06 | 49.94961 | 13.77077 | 40229 ft | 441 kts | 285° |
| 2026-04-27 23:06 | 49.96516 | 13.67877 | 40229 ft | 441 kts | 285° |
| 2026-04-27 23:07 | 49.98084 | 13.58674 | 40229 ft | 441 kts | 285° |
| 2026-04-27 23:07 | 49.99661 | 13.49476 | 40229 ft | 440 kts | 286° |
| 2026-04-27 23:08 | 50.01302 | 13.40304 | 40229 ft | 441 kts | 286° |
| 2026-04-27 23:08 | 50.02902 | 13.31101 | 40229 ft | 441 kts | 285° |
| 2026-04-27 23:09 | 50.04479 | 13.21879 | 40228 ft | 442 kts | 285° |
| 2026-04-27 23:09 | 50.06046 | 13.12636 | 40228 ft | 442 kts | 285° |
| 2026-04-27 23:10 | 50.07603 | 13.03394 | 40228 ft | 442 kts | 285° |
| 2026-04-27 23:10 | 50.09155 | 12.94128 | 40229 ft | 442 kts | 285° |
| 2026-04-27 23:11 | 50.10701 | 12.84852 | 40229 ft | 442 kts | 285° |
| 2026-04-27 23:11 | 50.12285 | 12.75588 | 40228 ft | 442 kts | 285° |
| 2026-04-27 23:12 | 50.13821 | 12.66311 | 40226 ft | 442 kts | 285° |
| 2026-04-27 23:12 | 50.15324 | 12.57023 | 40221 ft | 442 kts | 285° |
| 2026-04-27 23:13 | 50.16809 | 12.47793 | 40217 ft | 442 kts | 285° |
| 2026-04-27 23:13 | 50.18304 | 12.38502 | 40212 ft | 441 kts | 285° |
| 2026-04-27 23:14 | 50.19264 | 12.29069 | 40208 ft | 442 kts | 275° |
| 2026-04-27 23:14 | 50.19407 | 12.19415 | 40204 ft | 443 kts | 271° |
| 2026-04-27 23:15 | 50.19332 | 12.09797 | 40202 ft | 443 kts | 271° |
| 2026-04-27 23:15 | 50.19337 | 12.00173 | 40201 ft | 443 kts | 272° |
| 2026-04-27 23:16 | 50.19378 | 11.90568 | 40199 ft | 443 kts | 272° |
| 2026-04-27 23:16 | 50.19423 | 11.80950 | 40199 ft | 443 kts | 272° |
| 2026-04-27 23:17 | 50.19538 | 11.71346 | 40198 ft | 443 kts | 273° |
| 2026-04-27 23:17 | 50.19621 | 11.61725 | 40197 ft | 443 kts | 272° |
| 2026-04-27 23:18 | 50.19673 | 11.52122 | 40196 ft | 443 kts | 272° |
| 2026-04-27 23:18 | 50.19724 | 11.42499 | 40195 ft | 444 kts | 272° |
| 2026-04-27 23:19 | 50.19800 | 11.32930 | 40195 ft | 444 kts | 272° |
| 2026-04-27 23:19 | 50.19808 | 11.23302 | 40194 ft | 444 kts | 271° |
| 2026-04-27 23:20 | 50.19801 | 11.13658 | 40194 ft | 444 kts | 271° |
| 2026-04-27 23:20 | 50.19789 | 11.04023 | 40193 ft | 444 kts | 271° |
| 2026-04-27 23:21 | 50.19714 | 10.95946 | 40196 ft | 444 kts | 267° |
| 2026-04-27 23:21 | 50.18655 | 10.86432 | 40190 ft | 447 kts | 259° |
| 2026-04-27 23:22 | 50.16994 | 10.77078 | 40189 ft | 448 kts | 256° |
| 2026-04-27 23:22 | 50.15211 | 10.67769 | 40188 ft | 448 kts | 256° |
| 2026-04-27 23:23 | 50.13486 | 10.58426 | 40187 ft | 449 kts | 257° |
| 2026-04-27 23:23 | 50.11786 | 10.49084 | 40186 ft | 448 kts | 257° |
| 2026-04-27 23:24 | 50.10108 | 10.39737 | 40186 ft | 447 kts | 257° |
| 2026-04-27 23:24 | 50.08505 | 10.30388 | 40177 ft | 447 kts | 257° |
| 2026-04-27 23:25 | 50.06862 | 10.21053 | 40174 ft | 447 kts | 257° |
| 2026-04-27 23:25 | 50.05193 | 10.11733 | 40172 ft | 447 kts | 257° |
| 2026-04-27 23:26 | 50.03510 | 10.02421 | 40171 ft | 447 kts | 257° |
| 2026-04-27 23:26 | 50.01819 | 9.93120 | 40165 ft | 447 kts | 257° |
| 2026-04-27 23:27 | 50.00118 | 9.83825 | 40162 ft | 447 kts | 256° |
| 2026-04-27 23:27 | 49.98408 | 9.74527 | 40151 ft | 447 kts | 256° |
| 2026-04-27 23:28 | 49.96694 | 9.65251 | 40150 ft | 447 kts | 256° |
| 2026-04-27 23:28 | 49.94969 | 9.55971 | 40149 ft | 447 kts | 256° |
| 2026-04-27 23:29 | 49.93238 | 9.46699 | 40148 ft | 447 kts | 256° |
| 2026-04-27 23:29 | 49.91502 | 9.37447 | 39836 ft | 445 kts | 256° |
| 2026-04-27 23:30 | 49.90638 | 9.32861 | 39058 ft | 443 kts | 256° |
| 2026-04-27 23:30 | 49.89772 | 9.28273 | 38206 ft | 443 kts | 256° |
| 2026-04-27 23:30 | 49.88905 | 9.23693 | 37348 ft | 442 kts | 256° |
| 2026-04-27 23:30 | 49.88038 | 9.19124 | 36498 ft | 441 kts | 256° |
| 2026-04-27 23:31 | 49.87175 | 9.14586 | 35683 ft | 438 kts | 256° |
| 2026-04-27 23:31 | 49.86316 | 9.10080 | 34899 ft | 435 kts | 256° |
| 2026-04-27 23:31 | 49.85459 | 9.05592 | 34100 ft | 432 kts | 256° |
| 2026-04-27 23:31 | 49.84607 | 9.01146 | 33269 ft | 430 kts | 256° |
| 2026-04-27 23:32 | 49.83758 | 8.96722 | 32394 ft | 429 kts | 256° |
| 2026-04-27 23:32 | 49.82907 | 8.92299 | 31509 ft | 428 kts | 256° |
| 2026-04-27 23:32 | 49.82058 | 8.87900 | 30782 ft | 424 kts | 256° |
| 2026-04-27 23:32 | 49.81218 | 8.83556 | 30088 ft | 419 kts | 256° |
| 2026-04-27 23:33 | 49.80385 | 8.79256 | 29362 ft | 415 kts | 255° |
| 2026-04-27 23:33 | 49.79558 | 8.74997 | 28625 ft | 412 kts | 255° |
| 2026-04-27 23:33 | 49.78733 | 8.70760 | 27889 ft | 409 kts | 255° |
| 2026-04-27 23:33 | 49.77915 | 8.66567 | 27168 ft | 406 kts | 255° |
| 2026-04-27 23:34 | 49.77100 | 8.62395 | 26457 ft | 403 kts | 255° |
| 2026-04-27 23:34 | 49.76291 | 8.58265 | 25746 ft | 400 kts | 255° |
| 2026-04-27 23:34 | 49.75483 | 8.54154 | 25034 ft | 398 kts | 255° |
| 2026-04-27 23:34 | 49.74682 | 8.50081 | 24324 ft | 395 kts | 254° |
| 2026-04-27 23:35 | 49.73884 | 8.46035 | 23621 ft | 393 kts | 254° |
| 2026-04-27 23:35 | 49.73087 | 8.42001 | 22916 ft | 391 kts | 254° |
| 2026-04-27 23:35 | 49.72296 | 8.38005 | 22214 ft | 389 kts | 254° |
| 2026-04-27 23:35 | 49.71505 | 8.34017 | 21514 ft | 387 kts | 254° |
| 2026-04-27 23:36 | 49.70717 | 8.30055 | 20816 ft | 385 kts | 254° |
| 2026-04-27 23:36 | 49.69933 | 8.26117 | 20118 ft | 383 kts | 254° |
| 2026-04-27 23:36 | 49.69151 | 8.22199 | 19421 ft | 381 kts | 254° |
| 2026-04-27 23:36 | 49.68368 | 8.18288 | 18718 ft | 380 kts | 254° |
| 2026-04-27 23:37 | 49.67599 | 8.14451 | 18023 ft | 379 kts | 254° |
| 2026-04-27 23:37 | 49.66821 | 8.10575 | 17317 ft | 377 kts | 254° |
| 2026-04-27 23:37 | 49.66042 | 8.06703 | 16492 ft | 379 kts | 254° |
| 2026-04-27 23:37 | 49.65262 | 8.02831 | 15782 ft | 377 kts | 254° |
| 2026-04-27 23:38 | 49.64483 | 7.98977 | 15075 ft | 375 kts | 254° |
| 2026-04-27 23:38 | 49.63706 | 7.95139 | 14376 ft | 373 kts | 253° |
| 2026-04-27 23:38 | 49.62935 | 7.91336 | 13693 ft | 371 kts | 253° |
| 2026-04-27 23:38 | 49.62166 | 7.87549 | 13010 ft | 369 kts | 253° |
| 2026-04-27 23:39 | 49.61400 | 7.83787 | 12365 ft | 366 kts | 253° |
| 2026-04-27 23:39 | 49.60640 | 7.80061 | 11688 ft | 364 kts | 253° |
| 2026-04-27 23:39 | 49.59881 | 7.76348 | 10980 ft | 363 kts | 253° |
| 2026-04-27 23:39 | 49.59119 | 7.72622 | 10250 ft | 363 kts | 253° |
| 2026-04-27 23:40 | 49.58367 | 7.68956 | 9942 ft | 353 kts | 253° |
| 2026-04-27 23:40 | 49.57645 | 7.65443 | 9839 ft | 337 kts | 252° |
| 2026-04-27 23:40 | 49.56951 | 7.62073 | 9769 ft | 323 kts | 252° |
| 2026-04-27 23:40 | 49.56286 | 7.58846 | 9697 ft | 310 kts | 252° |
| 2026-04-27 23:41 | 49.55646 | 7.55745 | 9628 ft | 298 kts | 252° |
| 2026-04-27 23:41 | 49.55038 | 7.52770 | 9593 ft | 284 kts | 254° |
| 2026-04-27 23:41 | 49.54703 | 7.49819 | 9328 ft | 279 kts | 265° |
| 2026-04-27 23:41 | 49.54673 | 7.46833 | 8990 ft | 279 kts | 271° |
| 2026-04-27 23:42 | 49.54739 | 7.43854 | 8698 ft | 276 kts | 272° |
| 2026-04-27 23:42 | 49.54817 | 7.40952 | 8624 ft | 266 kts | 272° |
| 2026-04-27 23:42 | 49.54893 | 7.38160 | 8534 ft | 256 kts | 272° |
| 2026-04-27 23:42 | 49.54963 | 7.35428 | 8323 ft | 255 kts | 272° |
| 2026-04-27 23:43 | 49.55036 | 7.32700 | 8015 ft | 254 kts | 272° |
| 2026-04-27 23:43 | 49.55109 | 7.29987 | 7688 ft | 253 kts | 272° |
| 2026-04-27 23:43 | 49.55179 | 7.27278 | 7370 ft | 252 kts | 272° |
| 2026-04-27 23:43 | 49.55247 | 7.24618 | 7130 ft | 245 kts | 272° |
| 2026-04-27 23:44 | 49.55312 | 7.22012 | 6823 ft | 243 kts | 272° |
| 2026-04-27 23:44 | 49.55376 | 7.19423 | 6497 ft | 241 kts | 272° |
| 2026-04-27 23:44 | 49.55439 | 7.16835 | 6187 ft | 243 kts | 272° |
| 2026-04-27 23:44 | 49.55499 | 7.14268 | 5993 ft | 236 kts | 272° |
| 2026-04-27 23:45 | 49.55555 | 7.11794 | 5884 ft | 225 kts | 272° |
| 2026-04-27 23:45 | 49.55606 | 7.09421 | 5772 ft | 219 kts | 272° |
| 2026-04-27 23:45 | 49.55655 | 7.07129 | 5725 ft | 209 kts | 272° |
| 2026-04-27 23:45 | 49.55653 | 7.04955 | 5713 ft | 198 kts | 264° |
| 2026-04-27 23:46 | 49.55112 | 7.03047 | 5647 ft | 201 kts | 231° |
| 2026-04-27 23:46 | 49.53972 | 7.01821 | 5493 ft | 200 kts | 209° |
| 2026-04-27 23:46 | 49.52735 | 7.00851 | 5343 ft | 197 kts | 207° |
| 2026-04-27 23:46 | 49.51456 | 7.00166 | 5265 ft | 197 kts | 187° |
| 2026-04-27 23:47 | 49.50106 | 7.00397 | 5222 ft | 195 kts | 168° |
| 2026-04-27 23:47 | 49.48786 | 7.00875 | 5168 ft | 194 kts | 165° |
| 2026-04-27 23:47 | 49.47511 | 7.01538 | 5130 ft | 194 kts | 156° |
| 2026-04-27 23:47 | 49.46303 | 7.02455 | 5076 ft | 193 kts | 150° |
| 2026-04-27 23:48 | 49.45157 | 7.03527 | 5027 ft | 193 kts | 142° |
| 2026-04-27 23:48 | 49.44298 | 7.05079 | 4957 ft | 190 kts | 120° |
| 2026-04-27 23:48 | 49.43759 | 7.06923 | 4864 ft | 189 kts | 112° |
| 2026-04-27 23:48 | 49.43269 | 7.08792 | 4757 ft | 189 kts | 110° |
| 2026-04-27 23:49 | 49.42806 | 7.10681 | 4652 ft | 189 kts | 109° |
| 2026-04-27 23:49 | 49.42347 | 7.12572 | 4547 ft | 188 kts | 109° |
| 2026-04-27 23:49 | 49.41894 | 7.14457 | 4442 ft | 188 kts | 107° |
| 2026-04-27 23:49 | 49.41727 | 7.16430 | 4348 ft | 186 kts | 90° |
| 2026-04-27 23:50 | 49.41821 | 7.18387 | 4251 ft | 180 kts | 84° |
| 2026-04-27 23:50 | 49.41950 | 7.20253 | 4146 ft | 173 kts | 84° |
| 2026-04-27 23:50 | 49.42061 | 7.22104 | 4085 ft | 174 kts | 84° |
| 2026-04-27 23:50 | 49.42157 | 7.23958 | 4034 ft | 174 kts | 84° |
| 2026-04-27 23:51 | 49.42245 | 7.25802 | 4017 ft | 173 kts | 85° |
| 2026-04-27 23:51 | 49.42328 | 7.27649 | 4004 ft | 173 kts | 85° |
| 2026-04-27 23:51 | 49.42408 | 7.29493 | 4011 ft | 173 kts | 85° |
| 2026-04-27 23:51 | 49.42487 | 7.31341 | 4017 ft | 174 kts | 85° |
| 2026-04-27 23:52 | 49.42566 | 7.33196 | 3954 ft | 173 kts | 85° |
| 2026-04-27 23:52 | 49.42640 | 7.34971 | 3731 ft | 159 kts | 85° |
| 2026-04-27 23:52 | 49.42707 | 7.36565 | 3504 ft | 140 kts | 85° |
| 2026-04-27 23:52 | 49.42769 | 7.38026 | 3352 ft | 134 kts | 85° |
| 2026-04-27 23:53 | 49.42829 | 7.39450 | 3186 ft | 133 kts | 85° |
| 2026-04-27 23:53 | 49.42888 | 7.40870 | 2994 ft | 133 kts | 84° |
| 2026-04-27 23:53 | 49.42947 | 7.42286 | 2817 ft | 133 kts | 84° |
| 2026-04-27 23:53 | 49.43007 | 7.43706 | 2640 ft | 133 kts | 85° |
| 2026-04-27 23:54 | 49.43067 | 7.45124 | 2462 ft | 133 kts | 85° |
| 2026-04-27 23:54 | 49.43126 | 7.46546 | 2285 ft | 134 kts | 85° |
| 2026-04-27 23:54 | 49.43187 | 7.47997 | 2105 ft | 138 kts | 86° |
| 2026-04-27 23:54 | 49.43248 | 7.49464 | 1922 ft | 137 kts | 86° |
| 2026-04-27 23:55 | 49.43309 | 7.50908 | 1742 ft | 137 kts | 86° |
| 2026-04-27 23:55 | 49.43370 | 7.52364 | 1560 ft | 136 kts | 86° |
| 2026-04-27 23:55 | 49.43432 | 7.53814 | 1378 ft | 136 kts | 86° |
| 2026-04-27 23:55 | 49.43496 | 7.55256 | 1197 ft | 135 kts | 86° |
| 2026-04-27 23:56 | 49.43556 | 7.56695 | 1026 ft | 135 kts | 87° |
| 2026-04-27 23:56 | 49.43611 | 7.58130 | 862 ft | 134 kts | 86° |
| 2026-04-27 23:56 | 49.43673 | 7.59490 | 796 ft | 115 kts | 87° |
| 2026-04-27 23:56 | 49.43712 | 7.60477 | 796 ft | 70 kts | 86° |
| 2026-04-27 23:57 | 49.43734 | 7.61015 | 796 ft | 37 kts | 87° |
| 2026-04-27 23:57 | 49.43748 | 7.61369 | 796 ft | 26 kts | 85° |
| 2026-04-27 23:57 | 49.43763 | 7.61531 | 796 ft | 11 kts | 56° |
| 2026-04-27 23:57 | 49.43817 | 7.61560 | 796 ft | 8 kts | 1° |
| 2026-04-27 23:58 | 49.43873 | 7.61555 | 796 ft | 8 kts | 356° |
| 2026-04-27 23:58 | 49.43925 | 7.61550 | 796 ft | 7 kts | 356° |
| 2026-04-27 23:58 | 49.43975 | 7.61550 | 796 ft | 8 kts | 13° |
| 2026-04-27 23:58 | 49.44000 | 7.61609 | 796 ft | 6 kts | 102° |
| 2026-04-27 23:59 | 49.43959 | 7.61645 | 796 ft | 12 kts | 167° |
| 2026-04-27 23:59 | 49.43857 | 7.61662 | 796 ft | 11 kts | 177° |
| 2026-04-27 23:59 | 49.43787 | 7.61658 | 796 ft | 10 kts | 202° |
| 2026-04-27 23:59 | 49.43757 | 7.61572 | 796 ft | 10 kts | 266° |
| 2026-04-28 00:00 | 49.43750 | 7.61412 | 796 ft | 17 kts | 267° |
| 2026-04-28 00:00 | 49.43743 | 7.61235 | 796 ft | 16 kts | 266° |
| 2026-04-28 00:00 | 49.43736 | 7.61069 | 796 ft | 15 kts | 266° |
| 2026-04-28 00:00 | 49.43728 | 7.60913 | 796 ft | 14 kts | 265° |
| 2026-04-28 00:01 | 49.43722 | 7.60766 | 796 ft | 13 kts | 266° |
| 2026-04-28 00:01 | 49.43717 | 7.60630 | 796 ft | 12 kts | 266° |
| 2026-04-28 00:01 | 49.43711 | 7.60501 | 796 ft | 12 kts | 266° |
| 2026-04-28 00:01 | 49.43706 | 7.60381 | 796 ft | 11 kts | 266° |
| 2026-04-28 00:02 | 49.43702 | 7.60269 | 796 ft | 10 kts | 266° |
| 2026-04-28 00:02 | 49.43696 | 7.60145 | 796 ft | 15 kts | 266° |
| 2026-04-28 00:02 | 49.43688 | 7.59954 | 796 ft | 18 kts | 265° |
| 2026-04-28 00:02 | 49.43738 | 7.59845 | 796 ft | 21 kts | 332° |
| 2026-04-28 00:03 | 49.43861 | 7.59750 | 796 ft | 17 kts | 332° |
| 2026-04-28 00:03 | 49.43930 | 7.59697 | 796 ft | 16 kts | 333° |
| 2026-04-28 00:03 | 49.44025 | 7.59621 | 796 ft | 15 kts | 328° |
| 2026-04-28 00:03 | 49.44103 | 7.59536 | 796 ft | 13 kts | 322° |
| 2026-04-28 00:04 | 49.44185 | 7.59495 | 796 ft | 11 kts | 356° |
| 2026-04-28 00:04 | 49.44245 | 7.59493 | 796 ft | 2 kts | 2° |
| 2026-04-28 00:04 | 49.44258 | 7.59494 | 796 ft | 0 kts | 2° |